KCYS/CYS METAR and TAF weather

Enter ICAO airport designator
Station Type Date Time Source
KCYS METAR 2020/09/30 13:53 UTC NOAA

KCYS 301353Z 35010KT 10SM CLR 11/M04 A3035 RMK AO2 SLP215 T01111044 $


Station Type Date Time Source
KCYS Decoded METAR 2020/09/30 13:53 UTC NOAA

CHEYENNE AIRPORT, WY, United States (KCYS) 41-09N 104-48W 1865M
Sep 30, 2020 - 09:53 AM EDT / 2020.09.30 1353 UTC
Wind: from the N (350 degrees) at 12 MPH (10 KT):0
Visibility: 10 mile(s):0
Sky conditions: clear
Temperature: 52.0 F (11.1 C)
Dew Point: 24.1 F (-4.4 C)
Relative Humidity: 33%
Pressure (altimeter): 30.35 in. Hg (1027 hPa)
ob: KCYS 301353Z 35010KT 10SM CLR 11/M04 A3035 RMK AO2 SLP215 T01111044
cycle: 14

Station Type Date Time Source
KCYS TAF 2020/09/30 12:34 UTC NOAA

TAF KCYS 301132Z 3012/0112 33012KT P6SM SKC
FM301500 36012G18KT P6SM SKC
FM010100 30007KT P6SM SKC

Example: see airport list